Terminal Aerodrome Forecast
Issued by NWS Milwaukee/Sullivan, WI

Home | Current Version | Previous Version | Text Only | Print | Product List | Glossary On
Versions: 1 2 3 4 5 6 7 8 9 10 11 12 13 14 15 16 17 18 19 20 21 22 23 24 25 26 27 28 29 30 31 32 33 34 35 36 37 38 39 40
000
FTUS43 KMKX 121951 AAA
TAFMKE
TAF AMD
KMKE 121951Z 1220/1324 26010KT 6SM BR VCSH BKN015 OVC035
     FM122200 20007KT 5SM -RA BR VCTS BKN015 OVC035CB
     FM130300 30007KT 4SM TSRA BR BKN015 OVC030CB
     FM130600 30006KT 5SM BR SCT015 BKN030CB
     FM131300 32008KT P6SM SCT025
     FM131800 30011G20KT P6SM FEW050=

USA.gov is the U.S. government's official web portal to all federal, state and local government web resources and services.